sensor_id;sensor_type;location;lat;lon;timestamp;P1;durP1;ratioP1;P2;durP2;ratioP2
14526;SDS011;7350;51.208;4.238;2023-04-06T00:00:34;6.88;;;6.18;;
14526;SDS011;7350;51.208;4.238;2023-04-06T00:03:03;6.80;;;5.75;;
14526;SDS011;7350;51.208;4.238;2023-04-06T00:05:30;6.47;;;5.63;;
14526;SDS011;7350;51.208;4.238;2023-04-06T00:07:57;6.00;;;5.40;;
14526;SDS011;7350;51.208;4.238;2023-04-06T00:10:24;6.50;;;5.90;;
14526;SDS011;7350;51.208;4.238;2023-04-06T00:12:51;8.63;;;5.93;;
14526;SDS011;7350;51.208;4.238;2023-04-06T00:15:18;6.22;;;5.63;;
14526;SDS011;7350;51.208;4.238;2023-04-06T00:17:46;5.78;;;5.18;;
14526;SDS011;7350;51.208;4.238;2023-04-06T00:20:14;5.85;;;4.82;;
14526;SDS011;7350;51.208;4.238;2023-04-06T00:22:41;7.05;;;5.80;;
14526;SDS011;7350;51.208;4.238;2023-04-06T00:25:09;6.13;;;5.63;;
14526;SDS011;7350;51.208;4.238;2023-04-06T00:27:37;6.20;;;5.60;;
14526;SDS011;7350;51.208;4.238;2023-04-06T00:30:04;6.68;;;6.00;;
14526;SDS011;7350;51.208;4.238;2023-04-06T00:32:33;6.75;;;5.95;;
14526;SDS011;7350;51.208;4.238;2023-04-06T00:35:01;6.53;;;5.63;;
14526;SDS011;7350;51.208;4.238;2023-04-06T00:37:30;6.10;;;5.50;;
14526;SDS011;7350;51.208;4.238;2023-04-06T00:39:57;6.57;;;5.95;;
14526;SDS011;7350;51.208;4.238;2023-04-06T00:42:24;6.80;;;5.88;;
14526;SDS011;7350;51.208;4.238;2023-04-06T00:44:52;6.78;;;5.68;;
14526;SDS011;7350;51.208;4.238;2023-04-06T00:47:19;6.30;;;5.40;;
14526;SDS011;7350;51.208;4.238;2023-04-06T00:49:46;6.63;;;5.85;;
14526;SDS011;7350;51.208;4.238;2023-04-06T00:52:14;6.72;;;5.40;;
14526;SDS011;7350;51.208;4.238;2023-04-06T00:54:43;6.63;;;5.88;;
14526;SDS011;7350;51.208;4.238;2023-04-06T00:57:10;5.93;;;5.20;;
14526;SDS011;7350;51.208;4.238;2023-04-06T00:59:37;7.22;;;5.63;;
14526;SDS011;7350;51.208;4.238;2023-04-06T01:02:05;7.82;;;6.07;;
14526;SDS011;7350;51.208;4.238;2023-04-06T01:04:33;5.97;;;5.38;;
14526;SDS011;7350;51.208;4.238;2023-04-06T01:07:00;8.13;;;6.60;;
14526;SDS011;7350;51.208;4.238;2023-04-06T01:09:27;6.63;;;5.45;;
14526;SDS011;7350;51.208;4.238;2023-04-06T01:11:56;6.35;;;5.70;;
14526;SDS011;7350;51.208;4.238;2023-04-06T01:14:24;7.15;;;5.65;;
14526;SDS011;7350;51.208;4.238;2023-04-06T01:16:51;6.93;;;6.05;;
14526;SDS011;7350;51.208;4.238;2023-04-06T01:19:21;6.15;;;5.55;;
14526;SDS011;7350;51.208;4.238;2023-04-06T01:21:48;6.13;;;5.53;;
14526;SDS011;7350;51.208;4.238;2023-04-06T01:24:19;5.65;;;5.13;;
14526;SDS011;7350;51.208;4.238;2023-04-06T01:26:46;7.03;;;5.78;;
14526;SDS011;7350;51.208;4.238;2023-04-06T01:29:13;6.45;;;5.80;;
14526;SDS011;7350;51.208;4.238;2023-04-06T01:31:40;5.97;;;5.10;;
14526;SDS011;7350;51.208;4.238;2023-04-06T01:34:07;5.78;;;5.20;;
14526;SDS011;7350;51.208;4.238;2023-04-06T01:36:34;7.63;;;5.53;;
14526;SDS011;7350;51.208;4.238;2023-04-06T01:39:02;5.63;;;4.75;;
14526;SDS011;7350;51.208;4.238;2023-04-06T01:41:30;5.72;;;5.22;;
14526;SDS011;7350;51.208;4.238;2023-04-06T01:43:57;5.45;;;4.85;;
14526;SDS011;7350;51.208;4.238;2023-04-06T01:46:24;5.63;;;5.03;;
14526;SDS011;7350;51.208;4.238;2023-04-06T01:48:51;5.72;;;5.20;;
14526;SDS011;7350;51.208;4.238;2023-04-06T01:51:18;5.25;;;4.75;;
14526;SDS011;7350;51.208;4.238;2023-04-06T01:53:45;5.82;;;5.20;;
14526;SDS011;7350;51.208;4.238;2023-04-06T01:56:13;6.70;;;5.05;;
14526;SDS011;7350;51.208;4.238;2023-04-06T01:58:41;5.97;;;5.38;;
14526;SDS011;7350;51.208;4.238;2023-04-06T02:01:08;5.55;;;5.05;;
14526;SDS011;7350;51.208;4.238;2023-04-06T02:03:35;5.85;;;5.18;;
14526;SDS011;7350;51.208;4.238;2023-04-06T02:06:02;5.75;;;5.18;;
14526;SDS011;7350;51.208;4.238;2023-04-06T02:08:30;5.82;;;5.15;;
14526;SDS011;7350;51.208;4.238;2023-04-06T02:10:57;5.70;;;4.90;;
14526;SDS011;7350;51.208;4.238;2023-04-06T02:13:24;6.10;;;5.10;;
14526;SDS011;7350;51.208;4.238;2023-04-06T02:15:52;5.70;;;4.82;;
14526;SDS011;7350;51.208;4.238;2023-04-06T02:18:19;6.13;;;5.10;;
14526;SDS011;7350;51.208;4.238;2023-04-06T02:20:47;9.38;;;4.82;;
14526;SDS011;7350;51.208;4.238;2023-04-06T02:23:14;5.72;;;5.22;;
14526;SDS011;7350;51.208;4.238;2023-04-06T02:25:41;5.60;;;5.10;;
14526;SDS011;7350;51.208;4.238;2023-04-06T02:28:08;5.78;;;5.13;;
14526;SDS011;7350;51.208;4.238;2023-04-06T02:30:35;6.18;;;5.07;;
14526;SDS011;7350;51.208;4.238;2023-04-06T02:33:03;5.35;;;4.85;;
14526;SDS011;7350;51.208;4.238;2023-04-06T02:35:31;5.68;;;5.05;;
14526;SDS011;7350;51.208;4.238;2023-04-06T02:37:58;5.70;;;5.10;;
14526;SDS011;7350;51.208;4.238;2023-04-06T02:40:25;6.00;;;4.82;;
14526;SDS011;7350;51.208;4.238;2023-04-06T02:42:52;5.97;;;5.00;;
14526;SDS011;7350;51.208;4.238;2023-04-06T02:45:19;5.22;;;4.30;;
14526;SDS011;7350;51.208;4.238;2023-04-06T02:47:46;5.47;;;4.97;;
14526;SDS011;7350;51.208;4.238;2023-04-06T02:50:14;5.25;;;4.30;;
14526;SDS011;7350;51.208;4.238;2023-04-06T02:52:42;5.30;;;4.80;;
14526;SDS011;7350;51.208;4.238;2023-04-06T02:55:09;6.05;;;5.03;;
14526;SDS011;7350;51.208;4.238;2023-04-06T02:57:36;6.05;;;5.05;;
14526;SDS011;7350;51.208;4.238;2023-04-06T03:00:03;6.15;;;5.30;;
14526;SDS011;7350;51.208;4.238;2023-04-06T03:02:31;4.88;;;4.38;;
14526;SDS011;7350;51.208;4.238;2023-04-06T03:04:58;5.30;;;4.80;;
14526;SDS011;7350;51.208;4.238;2023-04-06T03:07:27;5.25;;;4.75;;
14526;SDS011;7350;51.208;4.238;2023-04-06T03:09:54;5.18;;;4.68;;
14526;SDS011;7350;51.208;4.238;2023-04-06T03:12:21;5.63;;;4.82;;
14526;SDS011;7350;51.208;4.238;2023-04-06T03:14:48;5.38;;;4.78;;
14526;SDS011;7350;51.208;4.238;2023-04-06T03:17:15;5.72;;;5.15;;
14526;SDS011;7350;51.208;4.238;2023-04-06T03:19:42;6.18;;;5.57;;
14526;SDS011;7350;51.208;4.238;2023-04-06T03:22:09;5.28;;;4.78;;
14526;SDS011;7350;51.208;4.238;2023-04-06T03:24:38;5.93;;;5.30;;
14526;SDS011;7350;51.208;4.238;2023-04-06T03:27:05;5.95;;;5.18;;
14526;SDS011;7350;51.208;4.238;2023-04-06T03:29:32;5.05;;;4.50;;
14526;SDS011;7350;51.208;4.238;2023-04-06T03:31:59;6.85;;;4.97;;
14526;SDS011;7350;51.208;4.238;2023-04-06T03:34:26;6.57;;;5.40;;
14526;SDS011;7350;51.208;4.238;2023-04-06T03:36:53;6.07;;;4.90;;
14526;SDS011;7350;51.208;4.238;2023-04-06T03:39:20;5.50;;;4.85;;
14526;SDS011;7350;51.208;4.238;2023-04-06T03:41:49;6.82;;;5.10;;
14526;SDS011;7350;51.208;4.238;2023-04-06T03:44:16;5.30;;;4.78;;
14526;SDS011;7350;51.208;4.238;2023-04-06T03:46:43;5.55;;;4.85;;
14526;SDS011;7350;51.208;4.238;2023-04-06T03:49:10;5.80;;;5.20;;
14526;SDS011;7350;51.208;4.238;2023-04-06T03:51:37;5.25;;;4.65;;
14526;SDS011;7350;51.208;4.238;2023-04-06T03:54:04;5.55;;;5.05;;
14526;SDS011;7350;51.208;4.238;2023-04-06T03:56:31;6.32;;;5.10;;
14526;SDS011;7350;51.208;4.238;2023-04-06T03:58:59;5.72;;;5.20;;
14526;SDS011;7350;51.208;4.238;2023-04-06T04:01:27;5.13;;;4.60;;
14526;SDS011;7350;51.208;4.238;2023-04-06T04:03:54;5.05;;;4.57;;
14526;SDS011;7350;51.208;4.238;2023-04-06T04:06:21;5.72;;;5.13;;
14526;SDS011;7350;51.208;4.238;2023-04-06T04:08:48;5.07;;;4.57;;
14526;SDS011;7350;51.208;4.238;2023-04-06T04:11:15;5.78;;;4.93;;
14526;SDS011;7350;51.208;4.238;2023-04-06T04:13:42;6.07;;;4.95;;
14526;SDS011;7350;51.208;4.238;2023-04-06T04:16:11;5.68;;;5.07;;
14526;SDS011;7350;51.208;4.238;2023-04-06T04:18:38;5.03;;;4.47;;
14526;SDS011;7350;51.208;4.238;2023-04-06T04:21:05;5.70;;;5.20;;
14526;SDS011;7350;51.208;4.238;2023-04-06T04:23:32;5.72;;;5.18;;
14526;SDS011;7350;51.208;4.238;2023-04-06T04:25:59;5.70;;;5.10;;
14526;SDS011;7350;51.208;4.238;2023-04-06T04:28:26;5.38;;;4.80;;
14526;SDS011;7350;51.208;4.238;2023-04-06T04:30:53;5.78;;;5.18;;
14526;SDS011;7350;51.208;4.238;2023-04-06T04:33:21;6.10;;;5.40;;
14526;SDS011;7350;51.208;4.238;2023-04-06T04:35:48;5.95;;;5.35;;
14526;SDS011;7350;51.208;4.238;2023-04-06T04:38:15;7.95;;;5.65;;
14526;SDS011;7350;51.208;4.238;2023-04-06T04:40:42;6.70;;;6.10;;
14526;SDS011;7350;51.208;4.238;2023-04-06T04:43:09;8.00;;;6.55;;
14526;SDS011;7350;51.208;4.238;2023-04-06T04:45:36;6.80;;;6.05;;
14526;SDS011;7350;51.208;4.238;2023-04-06T04:48:03;7.13;;;5.35;;
14526;SDS011;7350;51.208;4.238;2023-04-06T04:50:32;8.23;;;5.80;;
14526;SDS011;7350;51.208;4.238;2023-04-06T04:52:59;7.13;;;6.05;;
14526;SDS011;7350;51.208;4.238;2023-04-06T04:55:27;6.32;;;5.38;;
14526;SDS011;7350;51.208;4.238;2023-04-06T04:57:54;5.80;;;5.20;;
14526;SDS011;7350;51.208;4.238;2023-04-06T05:00:21;7.25;;;5.68;;
14526;SDS011;7350;51.208;4.238;2023-04-06T05:02:48;5.10;;;4.60;;
14526;SDS011;7350;51.208;4.238;2023-04-06T05:05:15;5.95;;;5.13;;
14526;SDS011;7350;51.208;4.238;2023-04-06T05:07:44;5.20;;;4.70;;
14526;SDS011;7350;51.208;4.238;2023-04-06T05:10:11;7.22;;;4.40;;
14526;SDS011;7350;51.208;4.238;2023-04-06T05:12:38;4.93;;;4.43;;
14526;SDS011;7350;51.208;4.238;2023-04-06T05:15:06;5.25;;;4.50;;
14526;SDS011;7350;51.208;4.238;2023-04-06T05:17:34;4.78;;;4.38;;
14526;SDS011;7350;51.208;4.238;2023-04-06T05:20:01;5.20;;;4.40;;
14526;SDS011;7350;51.208;4.238;2023-04-06T05:22:28;5.55;;;4.40;;
14526;SDS011;7350;51.208;4.238;2023-04-06T05:24:56;5.78;;;5.03;;
14526;SDS011;7350;51.208;4.238;2023-04-06T05:27:23;6.25;;;5.18;;
14526;SDS011;7350;51.208;4.238;2023-04-06T05:29:51;8.30;;;4.38;;
14526;SDS011;7350;51.208;4.238;2023-04-06T05:32:18;5.22;;;4.72;;
14526;SDS011;7350;51.208;4.238;2023-04-06T05:34:47;6.07;;;4.97;;
14526;SDS011;7350;51.208;4.238;2023-04-06T05:37:14;6.90;;;5.63;;
14526;SDS011;7350;51.208;4.238;2023-04-06T05:39:42;8.68;;;5.30;;
14526;SDS011;7350;51.208;4.238;2023-04-06T05:42:10;5.15;;;4.65;;
14526;SDS011;7350;51.208;4.238;2023-04-06T05:44:37;6.97;;;5.50;;
14526;SDS011;7350;51.208;4.238;2023-04-06T05:47:04;5.43;;;4.60;;
14526;SDS011;7350;51.208;4.238;2023-04-06T05:49:31;6.43;;;5.18;;
14526;SDS011;7350;51.208;4.238;2023-04-06T05:51:58;6.25;;;5.65;;
14526;SDS011;7350;51.208;4.238;2023-04-06T05:54:25;6.13;;;5.13;;
14526;SDS011;7350;51.208;4.238;2023-04-06T05:56:52;7.00;;;5.40;;
14526;SDS011;7350;51.208;4.238;2023-04-06T05:59:21;5.75;;;5.05;;
14526;SDS011;7350;51.208;4.238;2023-04-06T06:01:48;5.78;;;5.10;;
14526;SDS011;7350;51.208;4.238;2023-04-06T06:04:15;7.15;;;5.38;;
14526;SDS011;7350;51.208;4.238;2023-04-06T06:06:42;7.57;;;5.32;;
14526;SDS011;7350;51.208;4.238;2023-04-06T06:09:09;5.50;;;5.00;;
14526;SDS011;7350;51.208;4.238;2023-04-06T06:11:36;5.88;;;5.07;;
14526;SDS011;7350;51.208;4.238;2023-04-06T06:14:04;6.22;;;5.47;;
14526;SDS011;7350;51.208;4.238;2023-04-06T06:16:32;5.93;;;5.32;;
14526;SDS011;7350;51.208;4.238;2023-04-06T06:19:00;7.10;;;5.22;;
14526;SDS011;7350;51.208;4.238;2023-04-06T06:21:27;6.25;;;5.65;;
14526;SDS011;7350;51.208;4.238;2023-04-06T06:23:55;6.53;;;5.82;;
14526;SDS011;7350;51.208;4.238;2023-04-06T06:26:22;7.05;;;6.07;;
14526;SDS011;7350;51.208;4.238;2023-04-06T06:28:49;8.93;;;6.32;;
14526;SDS011;7350;51.208;4.238;2023-04-06T06:31:16;6.53;;;5.30;;
14526;SDS011;7350;51.208;4.238;2023-04-06T06:33:46;7.35;;;5.85;;
14526;SDS011;7350;51.208;4.238;2023-04-06T06:36:15;6.28;;;5.68;;
14526;SDS011;7350;51.208;4.238;2023-04-06T06:38:42;5.85;;;5.25;;
14526;SDS011;7350;51.208;4.238;2023-04-06T06:41:09;6.10;;;5.50;;
14526;SDS011;7350;51.208;4.238;2023-04-06T06:43:36;6.45;;;5.65;;
14526;SDS011;7350;51.208;4.238;2023-04-06T06:46:04;6.60;;;5.90;;
14526;SDS011;7350;51.208;4.238;2023-04-06T06:48:31;8.10;;;6.13;;
14526;SDS011;7350;51.208;4.238;2023-04-06T06:50:59;6.00;;;5.40;;
14526;SDS011;7350;51.208;4.238;2023-04-06T06:53:26;6.63;;;5.57;;
14526;SDS011;7350;51.208;4.238;2023-04-06T06:55:53;6.90;;;5.78;;
14526;SDS011;7350;51.208;4.238;2023-04-06T06:58:24;6.47;;;5.78;;
14526;SDS011;7350;51.208;4.238;2023-04-06T07:00:51;6.40;;;5.80;;
14526;SDS011;7350;51.208;4.238;2023-04-06T07:03:22;6.15;;;5.38;;
14526;SDS011;7350;51.208;4.238;2023-04-06T07:05:49;6.63;;;4.95;;
14526;SDS011;7350;51.208;4.238;2023-04-06T07:08:20;7.28;;;5.70;;
14526;SDS011;7350;51.208;4.238;2023-04-06T07:10:48;5.97;;;5.43;;
14526;SDS011;7350;51.208;4.238;2023-04-06T07:13:17;6.53;;;5.55;;
14526;SDS011;7350;51.208;4.238;2023-04-06T07:15:47;6.18;;;5.57;;
14526;SDS011;7350;51.208;4.238;2023-04-06T07:18:14;5.45;;;4.95;;
14526;SDS011;7350;51.208;4.238;2023-04-06T07:20:42;6.30;;;5.70;;
14526;SDS011;7350;51.208;4.238;2023-04-06T07:23:09;6.38;;;5.20;;
14526;SDS011;7350;51.208;4.238;2023-04-06T07:25:37;5.80;;;5.30;;
14526;SDS011;7350;51.208;4.238;2023-04-06T07:28:04;6.03;;;5.43;;
14526;SDS011;7350;51.208;4.238;2023-04-06T07:30:32;6.28;;;5.55;;
14526;SDS011;7350;51.208;4.238;2023-04-06T07:32:59;5.35;;;4.85;;
14526;SDS011;7350;51.208;4.238;2023-04-06T07:35:26;5.53;;;5.03;;
14526;SDS011;7350;51.208;4.238;2023-04-06T07:37:55;5.43;;;4.93;;
14526;SDS011;7350;51.208;4.238;2023-04-06T07:40:22;5.68;;;5.15;;
14526;SDS011;7350;51.208;4.238;2023-04-06T07:42:50;5.60;;;4.97;;
14526;SDS011;7350;51.208;4.238;2023-04-06T07:45:17;6.22;;;5.63;;
14526;SDS011;7350;51.208;4.238;2023-04-06T07:47:44;6.95;;;5.43;;
14526;SDS011;7350;51.208;4.238;2023-04-06T07:50:12;6.95;;;5.50;;
14526;SDS011;7350;51.208;4.238;2023-04-06T07:52:40;7.78;;;5.65;;
14526;SDS011;7350;51.208;4.238;2023-04-06T07:55:08;7.97;;;6.10;;
14526;SDS011;7350;51.208;4.238;2023-04-06T07:57:37;6.47;;;5.88;;
14526;SDS011;7350;51.208;4.238;2023-04-06T08:00:06;7.32;;;5.47;;
14526;SDS011;7350;51.208;4.238;2023-04-06T08:02:34;9.55;;;5.28;;
14526;SDS011;7350;51.208;4.238;2023-04-06T08:05:01;6.60;;;5.38;;
14526;SDS011;7350;51.208;4.238;2023-04-06T08:07:28;7.60;;;5.43;;
14526;SDS011;7350;51.208;4.238;2023-04-06T08:09:56;6.90;;;5.20;;
14526;SDS011;7350;51.208;4.238;2023-04-06T08:12:23;7.82;;;5.78;;
14526;SDS011;7350;51.208;4.238;2023-04-06T08:14:50;6.57;;;4.93;;
14526;SDS011;7350;51.208;4.238;2023-04-06T08:17:18;6.03;;;4.80;;
14526;SDS011;7350;51.208;4.238;2023-04-06T08:19:45;5.82;;;4.60;;
14526;SDS011;7350;51.208;4.238;2023-04-06T08:22:12;6.55;;;5.10;;
14526;SDS011;7350;51.208;4.238;2023-04-06T08:24:39;4.50;;;4.10;;
14526;SDS011;7350;51.208;4.238;2023-04-06T08:27:06;5.20;;;4.70;;
14526;SDS011;7350;51.208;4.238;2023-04-06T08:29:34;7.15;;;4.70;;
14526;SDS011;7350;51.208;4.238;2023-04-06T08:32:01;6.90;;;4.60;;
14526;SDS011;7350;51.208;4.238;2023-04-06T08:34:31;6.85;;;4.70;;
14526;SDS011;7350;51.208;4.238;2023-04-06T08:36:58;7.38;;;4.60;;
14526;SDS011;7350;51.208;4.238;2023-04-06T08:39:26;6.63;;;4.13;;
14526;SDS011;7350;51.208;4.238;2023-04-06T08:41:55;4.45;;;4.05;;
14526;SDS011;7350;51.208;4.238;2023-04-06T08:44:24;4.32;;;3.92;;
14526;SDS011;7350;51.208;4.238;2023-04-06T08:46:52;4.38;;;3.97;;
14526;SDS011;7350;51.208;4.238;2023-04-06T08:49:19;5.35;;;3.70;;
14526;SDS011;7350;51.208;4.238;2023-04-06T08:51:48;7.35;;;3.80;;
14526;SDS011;7350;51.208;4.238;2023-04-06T08:54:16;4.95;;;3.30;;
14526;SDS011;7350;51.208;4.238;2023-04-06T08:56:43;4.55;;;4.07;;
14526;SDS011;7350;51.208;4.238;2023-04-06T08:59:10;4.03;;;3.63;;
14526;SDS011;7350;51.208;4.238;2023-04-06T09:01:38;5.78;;;3.78;;
14526;SDS011;7350;51.208;4.238;2023-04-06T09:04:07;4.05;;;3.53;;
14526;SDS011;7350;51.208;4.238;2023-04-06T09:06:35;4.50;;;3.10;;
14526;SDS011;7350;51.208;4.238;2023-04-06T09:09:04;3.85;;;3.20;;
14526;SDS011;7350;51.208;4.238;2023-04-06T09:11:41;5.32;;;3.42;;
14526;SDS011;7350;51.208;4.238;2023-04-06T09:14:09;4.65;;;3.03;;
14526;SDS011;7350;51.208;4.238;2023-04-06T09:16:38;4.32;;;3.25;;
14526;SDS011;7350;51.208;4.238;2023-04-06T09:19:07;3.67;;;2.95;;
14526;SDS011;7350;51.208;4.238;2023-04-06T09:21:35;3.85;;;3.08;;
14526;SDS011;7350;51.208;4.238;2023-04-06T09:24:03;4.25;;;3.10;;
14526;SDS011;7350;51.208;4.238;2023-04-06T09:26:32;4.10;;;3.17;;
14526;SDS011;7350;51.208;4.238;2023-04-06T09:29:10;3.17;;;2.88;;
14526;SDS011;7350;51.208;4.238;2023-04-06T09:31:47;4.32;;;2.95;;
14526;SDS011;7350;51.208;4.238;2023-04-06T09:34:20;3.97;;;2.80;;
14526;SDS011;7350;51.208;4.238;2023-04-06T09:36:48;4.70;;;3.20;;
14526;SDS011;7350;51.208;4.238;2023-04-06T09:39:19;5.15;;;3.00;;
14526;SDS011;7350;51.208;4.238;2023-04-06T09:41:49;4.10;;;2.80;;
14526;SDS011;7350;51.208;4.238;2023-04-06T09:44:17;3.08;;;2.75;;
14526;SDS011;7350;51.208;4.238;2023-04-06T09:46:45;4.15;;;3.10;;
14526;SDS011;7350;51.208;4.238;2023-04-06T09:49:12;4.97;;;2.72;;
14526;SDS011;7350;51.208;4.238;2023-04-06T09:51:40;3.65;;;2.58;;
14526;SDS011;7350;51.208;4.238;2023-04-06T09:54:11;3.83;;;2.97;;
14526;SDS011;7350;51.208;4.238;2023-04-06T09:56:45;2.95;;;2.65;;
14526;SDS011;7350;51.208;4.238;2023-04-06T09:59:13;4.10;;;2.85;;
14526;SDS011;7350;51.208;4.238;2023-04-06T10:01:45;3.10;;;2.80;;
14526;SDS011;7350;51.208;4.238;2023-04-06T10:04:21;3.13;;;2.60;;
14526;SDS011;7350;51.208;4.238;2023-04-06T10:06:56;2.60;;;2.40;;
14526;SDS011;7350;51.208;4.238;2023-04-06T10:09:25;3.50;;;2.83;;
14526;SDS011;7350;51.208;4.238;2023-04-06T10:12:02;3.30;;;2.60;;
14526;SDS011;7350;51.208;4.238;2023-04-06T10:14:30;3.10;;;2.60;;
14526;SDS011;7350;51.208;4.238;2023-04-06T10:16:59;3.95;;;2.63;;
14526;SDS011;7350;51.208;4.238;2023-04-06T10:19:28;3.50;;;2.60;;
14526;SDS011;7350;51.208;4.238;2023-04-06T10:22:00;3.58;;;2.60;;
14526;SDS011;7350;51.208;4.238;2023-04-06T10:24:31;3.88;;;2.90;;
14526;SDS011;7350;51.208;4.238;2023-04-06T10:26:58;2.80;;;2.60;;
14526;SDS011;7350;51.208;4.238;2023-04-06T10:29:40;4.70;;;3.00;;
14526;SDS011;7350;51.208;4.238;2023-04-06T10:32:09;4.68;;;2.80;;
14526;SDS011;7350;51.208;4.238;2023-04-06T10:34:36;2.63;;;2.42;;
14526;SDS011;7350;51.208;4.238;2023-04-06T10:37:10;3.00;;;2.70;;
14526;SDS011;7350;51.208;4.238;2023-04-06T10:39:47;3.00;;;2.70;;
14526;SDS011;7350;51.208;4.238;2023-04-06T10:42:25;2.60;;;2.40;;
14526;SDS011;7350;51.208;4.238;2023-04-06T10:45:04;2.83;;;2.22;;
14526;SDS011;7350;51.208;4.238;2023-04-06T10:47:38;3.40;;;2.30;;
14526;SDS011;7350;51.208;4.238;2023-04-06T10:50:06;3.22;;;2.65;;
14526;SDS011;7350;51.208;4.238;2023-04-06T10:52:34;2.95;;;2.35;;
14526;SDS011;7350;51.208;4.238;2023-04-06T10:55:01;3.33;;;2.03;;
14526;SDS011;7350;51.208;4.238;2023-04-06T10:57:29;3.15;;;2.40;;
14526;SDS011;7350;51.208;4.238;2023-04-06T10:59:57;2.97;;;2.67;;
14526;SDS011;7350;51.208;4.238;2023-04-06T11:02:24;2.90;;;2.60;;
14526;SDS011;7350;51.208;4.238;2023-04-06T11:04:55;2.78;;;2.55;;
14526;SDS011;7350;51.208;4.238;2023-04-06T11:07:23;2.72;;;2.33;;
14526;SDS011;7350;51.208;4.238;2023-04-06T11:09:50;3.30;;;2.63;;
14526;SDS011;7350;51.208;4.238;2023-04-06T11:12:21;3.22;;;2.17;;
14526;SDS011;7350;51.208;4.238;2023-04-06T11:14:55;2.67;;;2.47;;
14526;SDS011;7350;51.208;4.238;2023-04-06T11:17:27;3.33;;;2.38;;
14526;SDS011;7350;51.208;4.238;2023-04-06T11:19:55;3.13;;;2.30;;
14526;SDS011;7350;51.208;4.238;2023-04-06T11:22:23;3.08;;;2.20;;
14526;SDS011;7350;51.208;4.238;2023-04-06T11:24:50;2.92;;;2.40;;
14526;SDS011;7350;51.208;4.238;2023-04-06T11:27:17;2.50;;;2.28;;
14526;SDS011;7350;51.208;4.238;2023-04-06T11:29:45;3.83;;;2.70;;
14526;SDS011;7350;51.208;4.238;2023-04-06T11:32:21;3.00;;;2.40;;
14526;SDS011;7350;51.208;4.238;2023-04-06T11:34:48;3.10;;;2.80;;
14526;SDS011;7350;51.208;4.238;2023-04-06T11:37:15;2.90;;;2.60;;
14526;SDS011;7350;51.208;4.238;2023-04-06T11:39:43;2.25;;;2.05;;
14526;SDS011;7350;51.208;4.238;2023-04-06T11:42:21;3.15;;;2.60;;
14526;SDS011;7350;51.208;4.238;2023-04-06T11:44:50;2.67;;;2.45;;
14526;SDS011;7350;51.208;4.238;2023-04-06T11:47:18;2.67;;;2.28;;
14526;SDS011;7350;51.208;4.238;2023-04-06T11:49:52;3.35;;;2.83;;
14526;SDS011;7350;51.208;4.238;2023-04-06T11:52:20;3.30;;;2.80;;
14526;SDS011;7350;51.208;4.238;2023-04-06T11:54:49;2.80;;;2.60;;
14526;SDS011;7350;51.208;4.238;2023-04-06T11:57:17;2.63;;;2.42;;
14526;SDS011;7350;51.208;4.238;2023-04-06T11:59:45;3.28;;;2.70;;
14526;SDS011;7350;51.208;4.238;2023-04-06T12:02:12;3.38;;;3.08;;
14526;SDS011;7350;51.208;4.238;2023-04-06T12:04:40;2.92;;;2.58;;
14526;SDS011;7350;51.208;4.238;2023-04-06T12:07:07;2.70;;;2.50;;
14526;SDS011;7350;51.208;4.238;2023-04-06T12:09:34;3.35;;;2.80;;
14526;SDS011;7350;51.208;4.238;2023-04-06T12:12:02;3.10;;;2.53;;
14526;SDS011;7350;51.208;4.238;2023-04-06T12:14:29;3.67;;;2.92;;
14526;SDS011;7350;51.208;4.238;2023-04-06T12:16:56;3.20;;;2.90;;
14526;SDS011;7350;51.208;4.238;2023-04-06T12:19:23;3.92;;;2.95;;
14526;SDS011;7350;51.208;4.238;2023-04-06T12:21:53;3.15;;;2.60;;
14526;SDS011;7350;51.208;4.238;2023-04-06T12:24:20;3.33;;;2.67;;
14526;SDS011;7350;51.208;4.238;2023-04-06T12:26:47;2.85;;;2.58;;
14526;SDS011;7350;51.208;4.238;2023-04-06T12:29:14;3.25;;;2.95;;
14526;SDS011;7350;51.208;4.238;2023-04-06T12:31:41;2.65;;;2.45;;
14526;SDS011;7350;51.208;4.238;2023-04-06T12:34:10;2.72;;;2.40;;
14526;SDS011;7350;51.208;4.238;2023-04-06T12:36:37;2.85;;;2.40;;
14526;SDS011;7350;51.208;4.238;2023-04-06T12:39:06;3.10;;;2.80;;
14526;SDS011;7350;51.208;4.238;2023-04-06T12:41:33;3.10;;;2.75;;
14526;SDS011;7350;51.208;4.238;2023-04-06T12:44:00;2.67;;;2.40;;
14526;SDS011;7350;51.208;4.238;2023-04-06T12:46:28;3.00;;;2.63;;
14526;SDS011;7350;51.208;4.238;2023-04-06T12:48:56;3.00;;;2.65;;
14526;SDS011;7350;51.208;4.238;2023-04-06T12:51:24;3.15;;;2.85;;
14526;SDS011;7350;51.208;4.238;2023-04-06T12:53:53;2.75;;;2.55;;
14526;SDS011;7350;51.208;4.238;2023-04-06T12:56:21;3.20;;;2.80;;
14526;SDS011;7350;51.208;4.238;2023-04-06T12:58:50;3.40;;;2.40;;
14526;SDS011;7350;51.208;4.238;2023-04-06T13:01:17;2.97;;;2.33;;
14526;SDS011;7350;51.208;4.238;2023-04-06T13:03:45;2.67;;;2.42;;
14526;SDS011;7350;51.208;4.238;2023-04-06T13:06:12;2.60;;;2.35;;
14526;SDS011;7350;51.208;4.238;2023-04-06T13:08:40;2.85;;;2.30;;
14526;SDS011;7350;51.208;4.238;2023-04-06T13:11:07;3.42;;;2.75;;
14526;SDS011;7350;51.208;4.238;2023-04-06T13:13:36;2.40;;;2.20;;
14526;SDS011;7350;51.208;4.238;2023-04-06T13:16:04;2.63;;;2.40;;
14526;SDS011;7350;51.208;4.238;2023-04-06T13:18:33;2.78;;;2.47;;
14526;SDS011;7350;51.208;4.238;2023-04-06T13:21:02;2.13;;;1.92;;
14526;SDS011;7350;51.208;4.238;2023-04-06T13:23:29;2.42;;;2.20;;
14526;SDS011;7350;51.208;4.238;2023-04-06T13:25:59;3.78;;;2.60;;
14526;SDS011;7350;51.208;4.238;2023-04-06T13:28:28;3.03;;;2.53;;
14526;SDS011;7350;51.208;4.238;2023-04-06T13:30:58;2.70;;;2.15;;
14526;SDS011;7350;51.208;4.238;2023-04-06T13:33:25;3.38;;;2.65;;
14526;SDS011;7350;51.208;4.238;2023-04-06T13:35:53;2.65;;;2.45;;
14526;SDS011;7350;51.208;4.238;2023-04-06T13:38:20;3.05;;;2.30;;
14526;SDS011;7350;51.208;4.238;2023-04-06T13:40:49;2.10;;;1.90;;
14526;SDS011;7350;51.208;4.238;2023-04-06T13:43:16;2.60;;;2.40;;
14526;SDS011;7350;51.208;4.238;2023-04-06T13:45:49;2.53;;;2.33;;
14526;SDS011;7350;51.208;4.238;2023-04-06T13:48:18;2.40;;;2.20;;
14526;SDS011;7350;51.208;4.238;2023-04-06T13:50:45;2.40;;;2.20;;
14526;SDS011;7350;51.208;4.238;2023-04-06T13:53:13;2.20;;;2.00;;
14526;SDS011;7350;51.208;4.238;2023-04-06T13:55:40;2.10;;;1.90;;
14526;SDS011;7350;51.208;4.238;2023-04-06T13:58:07;2.60;;;2.38;;
14526;SDS011;7350;51.208;4.238;2023-04-06T14:00:34;2.63;;;2.20;;
14526;SDS011;7350;51.208;4.238;2023-04-06T14:03:01;2.55;;;2.10;;
14526;SDS011;7350;51.208;4.238;2023-04-06T14:05:31;2.95;;;2.25;;
14526;SDS011;7350;51.208;4.238;2023-04-06T14:07:58;3.03;;;2.55;;
14526;SDS011;7350;51.208;4.238;2023-04-06T14:10:25;2.50;;;1.98;;
14526;SDS011;7350;51.208;4.238;2023-04-06T14:12:52;2.40;;;2.20;;
14526;SDS011;7350;51.208;4.238;2023-04-06T14:15:20;3.00;;;2.20;;
14526;SDS011;7350;51.208;4.238;2023-04-06T14:17:48;2.58;;;2.38;;
14526;SDS011;7350;51.208;4.238;2023-04-06T14:20:16;2.80;;;2.60;;
14526;SDS011;7350;51.208;4.238;2023-04-06T14:22:45;2.60;;;2.08;;
14526;SDS011;7350;51.208;4.238;2023-04-06T14:25:14;2.80;;;2.60;;
14526;SDS011;7350;51.208;4.238;2023-04-06T14:27:41;2.92;;;2.55;;
14526;SDS011;7350;51.208;4.238;2023-04-06T14:30:09;2.55;;;2.15;;
14526;SDS011;7350;51.208;4.238;2023-04-06T14:32:36;2.70;;;2.20;;
14526;SDS011;7350;51.208;4.238;2023-04-06T14:35:04;2.58;;;2.38;;
14526;SDS011;7350;51.208;4.238;2023-04-06T14:37:31;2.30;;;2.10;;
14526;SDS011;7350;51.208;4.238;2023-04-06T14:39:59;2.40;;;2.20;;
14526;SDS011;7350;51.208;4.238;2023-04-06T14:42:26;2.65;;;2.45;;
14526;SDS011;7350;51.208;4.238;2023-04-06T14:44:53;2.55;;;2.35;;
14526;SDS011;7350;51.208;4.238;2023-04-06T14:47:20;2.30;;;2.10;;
14526;SDS011;7350;51.208;4.238;2023-04-06T14:49:47;2.10;;;1.90;;
14526;SDS011;7350;51.208;4.238;2023-04-06T14:52:15;2.25;;;2.00;;
14526;SDS011;7350;51.208;4.238;2023-04-06T14:54:42;3.17;;;2.33;;
14526;SDS011;7350;51.208;4.238;2023-04-06T14:57:10;2.47;;;2.28;;
14526;SDS011;7350;51.208;4.238;2023-04-06T14:59:37;2.38;;;2.13;;
14526;SDS011;7350;51.208;4.238;2023-04-06T15:02:04;1.80;;;1.67;;
14526;SDS011;7350;51.208;4.238;2023-04-06T15:04:33;1.92;;;1.77;;